Time;durP1;ratioP1;P1;durP2;ratioP2;P2;SDS_P1;SDS_P2;PMS_P1;PMS_P2;Temp;Humidity;BMP_temperature;BMP_pressure;BME280_temperature;BME280_humidity;BME280_pressure;Samples;Min_cycle;Max_cycle;Signal;HPM_P1;HPM_P2
2023/08/18 00:02:29;;;;;;;6.07;4.10;;;;;;;25.52;53.32;98743.38;6985372;28;20231;-86
2023/08/18 00:05:50;;;;;;;7.27;4.50;;;;;;;25.75;53.18;98747.09;6977518;28;20296;-84
2023/08/18 00:09:12;;;;;;;7.20;4.10;;;;;;;25.63;53.63;98733.78;6972686;28;20251;-85
2023/08/18 00:12:35;;;;;;;13.67;5.13;;;;;;;24.65;57.68;98746.94;6972118;28;20311;-85
2023/08/18 00:15:56;;;;;;;5.37;4.27;;;;;;;24.65;58.39;98737.88;6971327;28;20237;-85
2023/08/18 00:19:18;;;;;;;7.43;4.70;;;;;;;24.51;57.33;98679.03;6971984;28;20244;-85
2023/08/18 00:22:39;;;;;;;7.17;4.70;;;;;;;24.49;57.20;98668.28;6972347;28;20255;-84
2023/08/18 00:26:01;;;;;;;5.70;4.60;;;;;;;24.39;58.71;98740.13;6974168;28;20276;-84
2023/08/18 00:29:24;;;;;;;7.83;5.00;;;;;;;24.15;59.45;98731.06;6974077;28;20664;-85
2023/08/18 00:32:45;;;;;;;5.80;4.80;;;;;;;24.05;60.12;98738.59;6980092;28;20326;-85
2023/08/18 00:36:07;;;;;;;9.77;4.50;;;;;;;24.30;59.28;98733.59;6998889;28;20222;-85
2023/08/18 00:39:29;;;;;;;6.93;4.47;;;;;;;24.33;58.94;98734.94;6999877;28;20207;-85
2023/08/18 00:42:50;;;;;;;6.13;4.90;;;;;;;24.15;59.48;98725.53;6999564;28;20309;-86
2023/08/18 00:46:13;;;;;;;6.33;4.90;;;;;;;23.62;60.62;98703.81;6997814;28;20321;-85
2023/08/18 00:49:35;;;;;;;7.37;4.40;;;;;;;24.32;58.39;98723.13;6995607;28;20537;-85
2023/08/18 00:52:58;;;;;;;8.47;4.57;;;;;;;24.36;57.87;98706.81;6996699;28;20262;-85
2023/08/18 00:56:21;;;;;;;7.00;4.70;;;;;;;24.07;57.97;98684.84;6996889;28;20207;-85
2023/08/18 00:59:45;;;;;;;7.87;4.73;;;;;;;24.26;58.31;98721.53;6995742;28;20294;-85
2023/08/18 01:03:08;;;;;;;7.83;4.80;;;;;;;23.53;60.35;98714.63;6993483;28;20264;-83
2023/08/18 01:06:29;;;;;;;6.67;5.00;;;;;;;23.13;61.08;98689.41;6996453;28;20228;-85
2023/08/18 01:09:52;;;;;;;5.13;4.60;;;;;;;23.90;58.60;98720.31;6997288;28;20211;-85
2023/08/18 01:13:17;;;;;;;7.77;4.53;;;;;;;24.13;57.48;98729.72;6998468;28;20233;-84
2023/08/18 01:16:40;;;;;;;7.00;3.50;;;;;;;24.50;56.21;98719.56;6998393;28;20238;-84
2023/08/18 01:20:05;;;;;;;4.70;4.17;;;;;;;24.48;55.31;98691.47;6998503;28;20269;-84
2023/08/18 01:23:38;;;;;;;13.83;4.03;;;;;;;24.53;55.56;98713.44;6997958;28;20218;-84
2023/08/18 01:26:59;;;;;;;6.53;4.50;;;;;;;24.74;54.83;98723.13;6997736;28;20269;-83
2023/08/18 01:30:21;;;;;;;6.57;4.33;;;;;;;24.50;55.67;98725.09;6998185;28;20204;-85
2023/08/18 01:33:45;;;;;;;6.97;4.70;;;;;;;23.98;56.77;98694.91;6997693;28;20232;-84
2023/08/18 01:37:07;;;;;;;11.30;4.40;;;;;;;23.62;58.10;98714.81;6995893;28;20190;-84
2023/08/18 01:40:30;;;;;;;8.53;4.43;;;;;;;24.06;56.50;98719.03;6997834;28;20609;-84
2023/08/18 01:43:52;;;;;;;6.20;4.10;;;;;;;24.35;54.96;98714.25;6998009;28;20269;-84
2023/08/18 01:47:14;;;;;;;5.57;4.30;;;;;;;24.52;54.86;98695.28;6997044;28;20290;-83
2023/08/18 01:50:35;;;;;;;8.37;4.03;;;;;;;24.28;56.06;98690.91;7001726;28;20336;-84
2023/08/18 01:53:56;;;;;;;9.37;4.57;;;;;;;23.88;56.27;98667.47;7005512;28;20291;-84
2023/08/18 01:57:19;;;;;;;9.50;4.50;;;;;;;23.92;57.44;98706.25;6996301;28;20343;-83
2023/08/18 02:00:41;;;;;;;6.00;4.20;;;;;;;23.97;56.82;98687.75;6996729;28;20246;-84
2023/08/18 02:04:03;;;;;;;4.93;4.27;;;;;;;23.96;56.20;98683.34;6972077;28;20281;-84
2023/08/18 02:07:24;;;;;;;6.57;4.07;;;;;;;23.98;57.21;98697.66;6995132;28;20213;-84
2023/08/18 02:10:46;;;;;;;10.90;4.77;;;;;;;23.87;57.45;98709.03;6996101;28;20348;-84
2023/08/18 02:14:09;;;;;;;6.33;4.30;;;;;;;24.06;56.58;98698.94;6996267;28;20222;-84
2023/08/18 02:17:31;;;;;;;13.03;5.03;;;;;;;23.66;58.04;98704.88;6993387;28;20710;-83
2023/08/18 02:20:55;;;;;;;6.23;4.40;;;;;;;23.45;59.17;98706.19;6992746;28;20282;-84
2023/08/18 02:24:17;;;;;;;11.33;5.20;;;;;;;23.28;59.31;98712.13;6996408;28;20234;-84
2023/08/18 02:27:38;;;;;;;6.13;4.43;;;;;;;22.99;60.49;98696.66;6996259;28;20233;-84
2023/08/18 02:31:02;;;;;;;6.50;4.43;;;;;;;23.36;59.77;98692.22;6996843;28;20615;-84
2023/08/18 02:34:24;;;;;;;6.67;4.50;;;;;;;23.48;59.04;98700.91;6996319;28;20229;-84
2023/08/18 02:37:45;;;;;;;5.83;3.87;;;;;;;23.51;58.28;98694.84;6996052;28;20287;-83
2023/08/18 02:41:07;;;;;;;5.53;4.00;;;;;;;23.47;58.02;98698.44;6996504;28;20260;-84
2023/08/18 02:44:29;;;;;;;7.50;4.60;;;;;;;23.51;58.00;98696.78;6996774;28;20234;-84
2023/08/18 02:47:51;;;;;;;5.57;4.20;;;;;;;23.56;57.68;98688.47;6995805;28;20286;-84
2023/08/18 02:51:13;;;;;;;4.83;4.33;;;;;;;23.08;59.03;98692.19;6998780;28;20230;-84
2023/08/18 02:54:34;;;;;;;6.37;5.00;;;;;;;22.40;61.02;98677.56;6996878;28;20368;-84
2023/08/18 02:57:56;;;;;;;6.67;5.53;;;;;;;22.60;61.48;98671.94;6995292;28;20297;-83
2023/08/18 03:01:17;;;;;;;7.63;4.70;;;;;;;22.73;61.01;98679.53;6987635;28;20290;-84
2023/08/18 03:04:40;;;;;;;5.20;4.50;;;;;;;23.05;59.92;98674.34;6985313;28;20326;-84
2023/08/18 03:08:02;;;;;;;4.07;3.77;;;;;;;23.00;59.60;98648.81;7016556;28;20199;-84
2023/08/18 03:11:24;;;;;;;5.63;4.63;;;;;;;22.95;59.43;98652.44;7013406;28;20256;-84
2023/08/18 03:14:46;;;;;;;5.23;4.50;;;;;;;22.65;59.91;98668.34;6994815;28;20287;-84
2023/08/18 03:18:08;;;;;;;9.30;5.20;;;;;;;22.70;60.80;98663.63;6995178;28;20336;-84
2023/08/18 03:21:31;;;;;;;8.20;5.13;;;;;;;22.15;61.62;98666.72;6995499;28;20215;-84
2023/08/18 03:24:52;;;;;;;7.07;5.40;;;;;;;22.00;62.75;98664.03;7000617;28;20318;-84
2023/08/18 03:28:14;;;;;;;5.50;5.00;;;;;;;22.22;61.29;98655.41;7000771;28;20627;-84
2023/08/18 03:31:35;;;;;;;7.57;4.87;;;;;;;22.52;60.82;98668.97;7001643;28;20760;-84
2023/08/18 03:34:57;;;;;;;6.53;4.73;;;;;;;22.65;61.24;98687.59;7000527;28;20306;-84
2023/08/18 03:38:20;;;;;;;6.70;4.43;;;;;;;22.75;60.25;98671.84;7000245;28;20349;-84
2023/08/18 03:41:41;;;;;;;7.00;4.30;;;;;;;22.69;60.25;98673.00;7000827;28;20369;-82
2023/08/18 03:45:03;;;;;;;6.73;4.47;;;;;;;22.49;59.74;98672.31;7000681;28;20258;-84
2023/08/18 03:48:25;;;;;;;9.67;5.83;;;;;;;22.25;61.67;98672.13;7000012;28;20212;-84
2023/08/18 03:51:46;;;;;;;7.57;5.30;;;;;;;22.12;62.33;98666.47;7000363;28;20238;-84
2023/08/18 03:55:10;;;;;;;10.73;4.70;;;;;;;22.38;61.35;98673.44;7000663;28;20207;-82
2023/08/18 03:58:32;;;;;;;4.83;4.20;;;;;;;22.49;60.36;98653.06;6990536;28;20206;-83
2023/08/18 04:01:53;;;;;;;5.27;4.50;;;;;;;22.29;61.27;98648.50;6973277;28;20270;-84
2023/08/18 04:05:15;;;;;;;6.23;4.80;;;;;;;22.43;61.33;98666.00;7000399;28;20771;-85
2023/08/18 04:08:40;;;;;;;5.03;4.53;;;;;;;22.47;60.47;98672.59;6999581;28;20206;-84
2023/08/18 04:12:03;;;;;;;8.23;4.70;;;;;;;22.46;60.67;98670.13;6999809;28;20254;-84
2023/08/18 04:15:24;;;;;;;4.07;3.70;;;;;;;22.71;60.06;98668.03;6998485;28;20800;-85
2023/08/18 04:18:46;;;;;;;5.47;4.20;;;;;;;22.64;59.49;98663.94;6999014;28;20201;-84
2023/08/18 04:22:08;;;;;;;8.17;4.30;;;;;;;22.28;60.18;98638.63;6974112;28;20354;-82
2023/08/18 04:25:29;;;;;;;5.60;4.30;;;;;;;22.48;60.33;98659.69;6980006;28;20295;-83
2023/08/18 04:28:52;;;;;;;4.33;3.90;;;;;;;22.75;59.42;98669.09;7002828;28;20287;-83
2023/08/18 04:32:14;;;;;;;4.53;4.00;;;;;;;22.38;60.15;98673.44;7002175;28;20233;-81
2023/08/18 04:35:35;;;;;;;5.30;4.10;;;;;;;22.27;61.10;98677.34;7000731;28;20302;-87
2023/08/18 04:38:57;;;;;;;6.70;4.23;;;;;;;22.64;59.64;98655.69;6997746;28;20273;-82
2023/08/18 04:42:18;;;;;;;6.83;4.40;;;;;;;22.90;59.47;98681.91;6979059;28;20230;-82
2023/08/18 04:45:41;;;;;;;5.53;3.90;;;;;;;22.94;59.30;98696.69;7001040;28;20256;-81
2023/08/18 04:49:03;;;;;;;8.57;4.37;;;;;;;23.01;58.21;98684.28;6990155;28;20297;-80
2023/08/18 04:52:25;;;;;;;7.43;4.13;;;;;;;22.61;58.51;98651.59;7000467;28;20228;-83
2023/08/18 04:55:46;;;;;;;4.13;3.60;;;;;;;22.87;59.11;98690.72;6999229;28;20435;-80
2023/08/18 04:59:08;;;;;;;6.40;4.00;;;;;;;22.82;59.25;98696.25;7007088;28;20203;-82
2023/08/18 05:02:31;;;;;;;6.33;3.80;;;;;;;22.82;59.79;98697.09;7009217;28;20218;-81
2023/08/18 05:06:00;;;;;;;5.60;3.90;;;;;;;22.92;58.92;98671.44;7000187;28;20246;-82
2023/08/18 05:09:21;;;;;;;4.50;3.93;;;;;;;22.76;59.14;98702.88;6982543;28;20210;-82
2023/08/18 05:12:43;;;;;;;6.47;4.10;;;;;;;22.42;60.83;98702.00;7002124;28;20376;-82
2023/08/18 05:16:05;;;;;;;7.17;4.17;;;;;;;22.79;59.75;98711.41;7000881;28;20236;-82
2023/08/18 05:19:27;;;;;;;4.07;3.77;;;;;;;22.92;59.88;98702.50;7002450;28;20327;-82
2023/08/18 05:22:49;;;;;;;6.43;4.00;;;;;;;23.12;58.69;98701.53;7001768;28;20250;-81
2023/08/18 05:26:10;;;;;;;6.80;4.30;;;;;;;23.11;58.89;98700.69;7000729;28;20316;-82
2023/08/18 05:29:32;;;;;;;7.67;4.30;;;;;;;23.17;59.74;98704.25;7002565;28;20270;-82
2023/08/18 05:32:53;;;;;;;7.63;3.90;;;;;;;23.41;59.14;98705.94;7003052;28;20314;-82
2023/08/18 05:36:17;;;;;;;4.70;4.23;;;;;;;23.59;57.24;98702.47;7002700;28;20359;-82
2023/08/18 05:39:39;;;;;;;5.50;3.70;;;;;;;23.85;57.58;98712.09;7004202;28;20575;-84
2023/08/18 05:43:00;;;;;;;4.03;3.60;;;;;;;24.06;56.76;98705.25;6990579;28;20257;-83
2023/08/18 05:46:22;;;;;;;6.30;3.93;;;;;;;24.41;55.50;98713.06;6999820;28;20319;-83
2023/08/18 05:49:43;;;;;;;6.70;3.17;;;;;;;24.16;56.93;98699.63;6995459;28;20254;-83
2023/08/18 05:53:06;;;;;;;4.03;3.13;;;;;;;25.28;53.52;98684.72;6983615;28;20263;-83
2023/08/18 05:56:28;;;;;;;5.00;3.30;;;;;;;26.02;51.66;98697.44;7000968;28;20197;-83
2023/08/18 05:59:49;;;;;;;5.70;3.30;;;;;;;26.33;51.23;98721.38;6999578;28;20291;-83
2023/08/18 06:03:11;;;;;;;3.23;2.93;;;;;;;26.44;50.14;98681.31;6988751;28;20416;-83
2023/08/18 06:06:34;;;;;;;4.60;3.70;;;;;;;26.84;49.13;98707.25;6969449;28;20245;-84
2023/08/18 06:09:57;;;;;;;3.73;3.20;;;;;;;26.84;50.12;98698.97;6992730;28;20208;-84
2023/08/18 06:13:19;;;;;;;4.97;3.50;;;;;;;26.75;50.07;98695.28;6994056;28;20309;-83
2023/08/18 06:16:44;;;;;;;3.90;3.50;;;;;;;26.41;51.89;98706.81;6989957;28;20201;-84
2023/08/18 06:20:07;;;;;;;3.27;2.93;;;;;;;27.02;50.59;98717.34;6996908;28;20218;-86
2023/08/18 06:23:28;;;;;;;4.97;3.10;;;;;;;27.86;48.75;98710.75;6978547;28;20230;-84
2023/08/18 06:26:51;;;;;;;3.87;3.20;;;;;;;27.71;48.65;98709.19;6992623;28;20306;-85
2023/08/18 06:30:43;;;;;;;3.00;2.80;;;;;;;28.50;46.88;98715.59;6997921;28;20216;-85
2023/08/18 06:34:05;;;;;;;4.03;2.70;;;;;;;27.53;48.00;98717.72;6986693;28;20281;-83
2023/08/18 06:37:26;;;;;;;3.13;2.87;;;;;;;28.03;47.50;98719.16;6996925;28;20245;-82
2023/08/18 06:40:48;;;;;;;4.00;2.97;;;;;;;28.59;45.31;98706.13;6997013;28;20206;-83
2023/08/18 06:44:11;;;;;;;3.27;2.40;;;;;;;28.90;45.65;98712.34;6987322;28;20235;-82
2023/08/18 06:47:33;;;;;;;2.80;2.60;;;;;;;29.09;43.71;98707.34;6986790;28;20228;-82
2023/08/18 06:50:54;;;;;;;5.43;2.73;;;;;;;28.43;44.37;98630.06;6995827;28;20676;-83
2023/08/18 06:54:17;;;;;;;4.87;2.93;;;;;;;28.50;44.52;98613.75;6997583;28;20320;-83
2023/08/18 06:57:39;;;;;;;5.40;2.90;;;;;;;28.50;45.02;98605.44;6998258;28;20216;-82
2023/08/18 07:01:03;;;;;;;7.10;2.57;;;;;;;29.39;44.82;98686.06;7002280;28;20215;-84
2023/08/18 07:04:25;;;;;;;3.07;2.50;;;;;;;28.87;44.55;98668.59;7002800;28;20225;-82
2023/08/18 07:07:46;;;;;;;3.23;2.80;;;;;;;28.27;45.85;98595.59;7003070;28;20226;-83
2023/08/18 07:11:08;;;;;;;4.20;2.77;;;;;;;29.84;44.06;98703.94;7002581;28;20241;-85
2023/08/18 07:14:29;;;;;;;3.63;2.60;;;;;;;29.05;44.71;98639.72;7002539;28;20314;-83
2023/08/18 07:17:52;;;;;;;3.10;2.80;;;;;;;30.44;42.28;98673.88;7002152;28;20212;-83
2023/08/18 07:21:18;;;;;;;4.30;2.70;;;;;;;31.19;39.92;98713.47;7002239;28;20205;-83
2023/08/18 07:24:39;;;;;;;2.97;2.67;;;;;;;29.82;41.20;98606.13;7003739;28;20366;-83
2023/08/18 07:28:01;;;;;;;3.73;2.63;;;;;;;30.89;40.97;98717.47;7002431;28;20239;-84
2023/08/18 07:31:23;;;;;;;5.73;2.80;;;;;;;31.40;40.90;98724.59;7002727;28;20727;-84
2023/08/18 07:34:45;;;;;;;3.33;2.80;;;;;;;31.57;38.90;98719.69;7002496;28;20788;-83
2023/08/18 07:38:35;;;;;;;3.23;2.27;;;;;;;31.45;40.85;98714.06;7002085;28;20209;-83
2023/08/18 07:41:57;;;;;;;3.67;2.27;;;;;;;32.31;38.94;98723.09;7002970;28;20271;-86
2023/08/18 07:45:18;;;;;;;5.67;2.70;;;;;;;31.67;40.38;98721.22;7003582;28;20250;-85
2023/08/18 07:48:40;;;;;;;4.73;2.50;;;;;;;32.34;38.87;98725.22;7008187;28;20222;-81
2023/08/18 07:52:04;;;;;;;2.73;2.33;;;;;;;31.94;37.71;98581.97;7005513;28;20229;-84
2023/08/18 07:55:52;;;;;;;3.10;2.73;;;;;;;32.85;36.85;98718.88;6991674;28;20204;-88
2023/08/18 07:59:14;;;;;;;2.30;2.10;;;;;;;32.13;36.82;98718.88;6976317;28;20197;-86
2023/08/18 08:02:36;;;;;;;3.57;2.20;;;;;;;32.13;37.89;98713.31;6975668;28;20253;-81
2023/08/18 08:05:57;;;;;;;2.87;2.30;;;;;;;31.15;39.93;98694.97;6976346;28;20751;-83
2023/08/18 08:09:21;;;;;;;5.07;2.70;;;;;;;30.73;41.18;98710.88;7002143;28;20226;-84
2023/08/18 08:13:32;;;;;;;2.63;2.17;;;;;;;31.86;37.53;98713.16;7001334;28;20223;-84
2023/08/18 08:16:54;;;;;;;2.50;2.30;;;;;;;32.22;36.96;98696.44;7001876;28;20221;-85
2023/08/18 08:20:16;;;;;;;4.57;2.60;;;;;;;33.40;36.10;98707.81;7001378;28;20276;-83
2023/08/18 08:23:38;;;;;;;3.63;2.80;;;;;;;33.68;35.96;98707.78;7001200;28;20230;-85
2023/08/18 08:27:01;;;;;;;4.00;2.60;;;;;;;32.86;36.95;98719.72;7006549;28;20318;-84
2023/08/18 08:30:22;;;;;;;3.27;2.57;;;;;;;32.47;37.81;98707.28;7008830;28;20257;-84
2023/08/18 08:33:44;;;;;;;3.23;2.63;;;;;;;32.99;37.37;98722.13;7000880;28;20313;-84
2023/08/18 08:37:05;;;;;;;3.63;2.47;;;;;;;32.78;36.76;98636.88;7001234;28;20256;-85
2023/08/18 08:40:27;;;;;;;2.67;2.47;;;;;;;33.58;35.90;98713.88;7000606;28;20208;-85
2023/08/18 08:43:50;;;;;;;3.50;2.77;;;;;;;32.91;36.68;98708.31;7001898;28;20259;-83
2023/08/18 08:47:11;;;;;;;4.07;2.67;;;;;;;32.81;37.64;98711.56;7001991;28;20819;-84
2023/08/18 08:50:35;;;;;;;4.17;2.33;;;;;;;31.94;38.68;98698.28;7001447;28;20629;-84
2023/08/18 08:54:14;;;;;;;3.80;2.43;;;;;;;32.39;38.16;98693.47;7001047;28;20310;-82
2023/08/18 08:57:36;;;;;;;3.03;2.40;;;;;;;32.43;38.75;98705.56;7000755;28;20358;-82
2023/08/18 09:01:00;;;;;;;2.40;2.20;;;;;;;31.64;39.55;98702.38;7002264;28;20227;-85
2023/08/18 09:04:23;;;;;;;3.47;2.53;;;;;;;31.81;40.25;98703.03;6999831;28;20362;-82
2023/08/18 09:07:45;;;;;;;4.87;2.70;;;;;;;31.51;40.31;98692.34;7000458;28;20233;-82
2023/08/18 09:11:38;;;;;;;2.47;2.20;;;;;;;31.88;39.15;98706.06;6996730;28;20648;-82
2023/08/18 09:15:00;;;;;;;2.77;2.20;;;;;;;32.96;37.59;98710.84;6973019;28;20348;-83
2023/08/18 09:18:22;;;;;;;2.67;2.47;;;;;;;31.73;39.16;98692.00;6983514;28;20347;-82
2023/08/18 09:21:44;;;;;;;3.07;2.40;;;;;;;32.19;37.48;98711.91;7001716;28;20262;-85
2023/08/18 09:25:08;;;;;;;4.83;2.60;;;;;;;32.59;37.47;98715.66;7001699;28;20304;-83
2023/08/18 09:28:32;;;;;;;2.47;2.10;;;;;;;32.30;37.83;98621.00;7000418;28;20266;-83
2023/08/18 09:31:53;;;;;;;2.60;2.30;;;;;;;32.28;38.06;98697.88;7000238;28;20232;-83
2023/08/18 09:35:19;;;;;;;3.20;2.17;;;;;;;34.72;34.45;98698.50;7000657;28;20313;-83
2023/08/18 09:38:41;;;;;;;3.63;2.30;;;;;;;35.13;31.68;98664.19;7000452;28;20182;-83
2023/08/18 09:42:03;;;;;;;3.90;2.17;;;;;;;34.18;33.82;98693.94;7000304;28;20232;-84
2023/08/18 09:45:26;;;;;;;2.40;2.20;;;;;;;34.84;32.78;98647.16;7002965;28;20565;-87
2023/08/18 09:48:48;;;;;;;2.63;2.17;;;;;;;34.51;31.92;98622.41;7000093;28;20202;-82
2023/08/18 09:52:17;;;;;;;3.50;2.17;;;;;;;34.87;32.57;98633.22;6999472;28;20229;-82
2023/08/18 09:55:44;;;;;;;3.07;2.00;;;;;;;35.87;30.29;98568.28;6999044;28;20197;-91
2023/08/18 09:59:13;;;;;;;1.83;1.73;;;;;;;36.65;28.03;98585.13;6999301;28;20269;-82
2023/08/18 10:02:36;;;;;;;2.50;2.10;;;;;;;37.06;27.43;98685.28;6999607;28;20932;-81
2023/08/18 10:05:58;;;;;;;3.67;1.90;;;;;;;36.37;28.78;98618.41;6998864;28;20721;-82
2023/08/18 10:09:27;;;;;;;2.40;1.90;;;;;;;35.39;29.23;98649.53;6975285;28;20202;-87
2023/08/18 10:12:50;;;;;;;2.87;2.00;;;;;;;36.07;30.22;98679.28;6991222;28;20367;-82
2023/08/18 10:16:12;;;;;;;2.27;1.87;;;;;;;36.52;29.94;98678.44;6976989;28;20711;-83
2023/08/18 10:19:47;;;;;;;3.23;2.10;;;;;;;36.67;29.62;98675.47;6992045;28;20881;-82
2023/08/18 10:23:09;;;;;;;3.50;1.80;;;;;;;34.55;32.30;98673.69;7002110;28;20710;-82
2023/08/18 10:26:33;;;;;;;4.10;1.80;;;;;;;36.23;29.01;98671.56;7002703;28;20233;-84
2023/08/18 10:29:57;;;;;;;2.07;1.87;;;;;;;36.28;28.62;98668.44;7004258;28;20207;-82
2023/08/18 10:33:29;;;;;;;2.93;1.90;;;;;;;34.71;31.67;98663.25;7006595;28;20256;-82
2023/08/18 10:36:58;;;;;;;4.17;2.10;;;;;;;34.59;30.73;98663.38;7010255;28;20198;-86
2023/08/18 10:40:24;;;;;;;2.50;1.97;;;;;;;35.35;30.77;98634.63;7007243;28;20300;-80
2023/08/18 10:43:51;;;;;;;2.37;1.70;;;;;;;34.47;30.28;98662.69;7007256;28;20721;-82
2023/08/18 10:47:29;;;;;;;2.10;1.80;;;;;;;34.86;29.41;98650.41;7005833;28;20228;-83
2023/08/18 10:50:51;;;;;;;2.43;1.80;;;;;;;36.25;29.84;98654.34;7007570;28;20199;-86
2023/08/18 10:54:12;;;;;;;2.07;1.50;;;;;;;36.65;27.88;98665.81;6999887;28;20234;-85
2023/08/18 10:57:34;;;;;;;2.27;1.90;;;;;;;36.53;28.49;98649.97;7014798;28;20221;-84
2023/08/18 11:00:57;;;;;;;2.30;1.77;;;;;;;36.05;29.91;98656.41;7026625;28;20260;-84
2023/08/18 11:04:19;;;;;;;3.27;1.70;;;;;;;37.10;25.80;98641.19;7006971;28;20233;-82
2023/08/18 11:07:40;;;;;;;2.30;1.80;;;;;;;37.63;25.67;98631.38;7006417;28;20226;-83
2023/08/18 11:11:02;;;;;;;2.07;1.87;;;;;;;38.04;25.64;98602.00;7001061;28;20561;-85
2023/08/18 11:14:25;;;;;;;3.33;1.87;;;;;;;38.70;25.22;98607.31;7000077;28;20228;-86
2023/08/18 11:17:54;;;;;;;3.13;1.63;;;;;;;38.43;25.94;98630.50;6992641;28;20203;-85
2023/08/18 11:21:15;;;;;;;2.57;1.90;;;;;;;38.36;24.75;98617.13;7000354;28;20221;-89
2023/08/18 11:24:37;;;;;;;2.87;1.83;;;;;;;38.11;24.78;98621.78;7001115;28;20231;-87
2023/08/18 11:27:59;;;;;;;2.67;1.53;;;;;;;37.26;24.77;98624.09;7000628;28;20371;-87
2023/08/18 11:31:20;;;;;;;2.57;2.10;;;;;;;37.84;24.45;98620.28;7001466;28;20294;-88
2023/08/18 11:34:43;;;;;;;1.70;1.57;;;;;;;37.66;24.94;98610.88;7000872;28;20723;-87
2023/08/18 11:38:05;;;;;;;3.83;1.63;;;;;;;38.39;23.94;98585.34;6998060;28;20237;-86
2023/08/18 11:41:26;;;;;;;3.27;1.60;;;;;;;38.01;24.33;98604.78;7000640;28;20285;-88
2023/08/18 11:44:49;;;;;;;2.03;1.80;;;;;;;37.31;26.52;98616.09;6998058;28;20287;-87
2023/08/18 11:48:13;;;;;;;4.13;1.87;;;;;;;37.69;25.07;98607.31;6999422;28;20715;-85
2023/08/18 11:51:37;;;;;;;2.93;1.73;;;;;;;37.98;25.43;98589.50;6992728;28;20743;-84
2023/08/18 11:54:58;;;;;;;2.87;1.80;;;;;;;38.66;23.79;98592.38;7000956;28;20196;-85
2023/08/18 11:58:23;;;;;;;6.07;2.07;;;;;;;38.80;23.84;98602.91;6998653;28;20296;-85
2023/08/18 12:01:44;;;;;;;3.67;2.00;;;;;;;39.20;23.26;98600.69;6999239;28;20268;-84
2023/08/18 12:05:06;;;;;;;4.43;1.70;;;;;;;38.69;24.80;98594.41;7004458;28;20787;-84
2023/08/18 12:08:30;;;;;;;2.97;2.20;;;;;;;37.64;24.37;98592.75;7001714;28;20226;-85
2023/08/18 12:11:51;;;;;;;2.03;1.83;;;;;;;39.04;24.05;98590.97;6972352;28;20314;-84
2023/08/18 12:15:13;;;;;;;3.30;2.00;;;;;;;39.05;22.30;98587.75;6973209;28;20214;-85
2023/08/18 12:18:35;;;;;;;2.17;1.93;;;;;;;38.94;22.34;98558.69;6971298;28;20203;-84
2023/08/18 12:21:56;;;;;;;2.10;1.90;;;;;;;38.51;23.26;98541.97;6972153;28;20219;-84
2023/08/18 12:25:20;;;;;;;2.47;1.60;;;;;;;38.61;23.82;98564.56;6970543;28;20244;-84
2023/08/18 12:28:41;;;;;;;3.00;1.90;;;;;;;38.80;22.32;98554.97;6979794;28;20223;-85
2023/08/18 12:32:03;;;;;;;1.83;1.73;;;;;;;39.08;23.01;98578.47;6993725;28;20204;-84
2023/08/18 12:35:25;;;;;;;4.37;2.10;;;;;;;38.67;23.47;98565.78;6974844;28;20217;-85
2023/08/18 12:38:47;;;;;;;2.43;1.90;;;;;;;39.34;22.99;98572.53;6977386;28;20928;-84
2023/08/18 12:42:10;;;;;;;2.50;1.90;;;;;;;39.47;23.24;98570.94;6995049;28;20236;-85
2023/08/18 12:45:31;;;;;;;1.67;1.50;;;;;;;38.04;23.34;98443.50;6994763;28;20647;-85
2023/08/18 12:48:53;;;;;;;3.27;1.90;;;;;;;39.20;22.98;98569.63;6982338;28;20592;-84
2023/08/18 12:52:14;;;;;;;4.47;2.10;;;;;;;38.37;24.17;98488.34;6990708;28;20234;-84
2023/08/18 12:55:36;;;;;;;5.63;1.90;;;;;;;39.44;23.61;98566.09;6997169;28;20217;-84
2023/08/18 12:58:59;;;;;;;2.50;1.67;;;;;;;38.74;23.07;98576.31;6997986;28;20236;-84
2023/08/18 13:02:20;;;;;;;2.60;2.03;;;;;;;38.55;23.51;98580.22;6998887;28;20249;-84
2023/08/18 13:05:42;;;;;;;2.80;1.73;;;;;;;39.03;22.92;98578.06;6991639;28;20338;-84
2023/08/18 13:09:04;;;;;;;3.40;1.70;;;;;;;38.85;23.03;98541.31;6999805;28;20264;-83
2023/08/18 13:12:25;;;;;;;6.03;2.43;;;;;;;38.96;21.09;98578.03;6999237;28;20311;-84
2023/08/18 13:15:51;;;;;;;4.87;2.00;;;;;;;39.19;21.36;98564.44;7000583;28;20242;-84
2023/08/18 13:19:13;;;;;;;5.67;1.80;;;;;;;39.02;22.19;98576.47;7000003;28;20344;-85
2023/08/18 13:22:37;;;;;;;3.87;1.70;;;;;;;39.13;22.51;98563.97;6982806;28;20226;-85
2023/08/18 13:25:59;;;;;;;4.20;1.90;;;;;;;39.44;22.36;98573.78;6997338;28;20556;-85
2023/08/18 13:29:20;;;;;;;6.47;2.40;;;;;;;39.47;21.79;98575.78;6998685;28;20387;-85
2023/08/18 13:32:43;;;;;;;3.57;2.13;;;;;;;37.87;24.63;98570.84;6998244;28;20222;-85
2023/08/18 13:36:05;;;;;;;2.87;2.07;;;;;;;38.49;24.73;98566.91;6997289;28;20266;-85
2023/08/18 13:39:29;;;;;;;4.43;2.00;;;;;;;38.85;24.15;98565.91;6995087;28;20659;-85
2023/08/18 13:42:50;;;;;;;3.40;1.90;;;;;;;39.15;23.36;98569.25;6997876;28;20237;-85
2023/08/18 13:46:12;;;;;;;4.07;2.10;;;;;;;39.07;23.93;98564.78;7000781;28;20302;-85
2023/08/18 13:49:35;;;;;;;2.20;2.00;;;;;;;38.54;24.23;98566.56;6995538;28;20982;-88
2023/08/18 13:52:57;;;;;;;3.90;1.93;;;;;;;38.13;25.22;98563.03;6996313;28;20691;-85
2023/08/18 13:56:20;;;;;;;2.30;1.70;;;;;;;37.85;24.43;98498.03;6986508;28;20214;-85
2023/08/18 13:59:41;;;;;;;4.37;2.10;;;;;;;37.80;25.01;98556.72;6968160;28;20226;-86
2023/08/18 14:03:03;;;;;;;2.70;2.20;;;;;;;36.60;25.53;98554.53;6994407;28;20257;-87
2023/08/18 14:06:26;;;;;;;3.40;2.00;;;;;;;37.14;25.65;98556.84;6995401;28;20359;-85
2023/08/18 14:09:48;;;;;;;5.73;2.60;;;;;;;37.41;25.06;98547.91;6998188;28;20249;-85
2023/08/18 14:13:09;;;;;;;2.77;2.07;;;;;;;36.78;25.92;98557.63;6997713;28;20310;-85
2023/08/18 14:16:31;;;;;;;5.40;2.20;;;;;;;36.19;26.30;98521.88;6997411;28;20233;-85
2023/08/18 14:19:52;;;;;;;3.90;2.30;;;;;;;35.78;27.51;98508.00;6998538;28;20240;-85
2023/08/18 14:23:15;;;;;;;2.87;2.10;;;;;;;36.22;26.87;98464.13;6975268;28;20223;-85
2023/08/18 14:26:37;;;;;;;2.77;2.00;;;;;;;36.33;26.73;98535.31;6972108;28;20234;-84
2023/08/18 14:29:59;;;;;;;2.30;2.10;;;;;;;35.58;26.52;98453.94;6974407;28;20328;-84
2023/08/18 14:33:21;;;;;;;3.00;1.80;;;;;;;36.03;28.21;98535.22;6996741;28;20225;-85
2023/08/18 14:36:42;;;;;;;2.23;1.80;;;;;;;36.90;27.00;98530.03;6995586;28;20618;-85
2023/08/18 14:40:09;;;;;;;3.33;1.87;;;;;;;35.34;28.56;98538.47;6984371;28;20588;-85
2023/08/18 14:43:31;;;;;;;4.13;2.00;;;;;;;36.29;27.74;98532.44;6973141;28;20295;-85
2023/08/18 14:46:53;;;;;;;2.77;2.10;;;;;;;35.59;28.23;98527.66;6990247;28;20225;-85
2023/08/18 14:50:14;;;;;;;3.87;2.20;;;;;;;35.91;28.14;98527.03;6997083;28;20733;-88
2023/08/18 14:53:36;;;;;;;3.70;2.00;;;;;;;36.17;27.78;98527.06;6997422;28;20734;-85
2023/08/18 14:56:59;;;;;;;2.43;2.00;;;;;;;35.40;28.51;98491.28;6996559;28;20202;-85
2023/08/18 15:00:20;;;;;;;2.63;1.90;;;;;;;35.63;28.28;98481.69;6986880;28;20286;-85
2023/08/18 15:03:42;;;;;;;3.23;2.20;;;;;;;35.97;27.97;98460.94;6995877;28;20226;-86
2023/08/18 15:07:04;;;;;;;3.93;2.07;;;;;;;36.71;27.19;98532.22;6989381;28;20232;-86
2023/08/18 15:10:26;;;;;;;4.73;2.10;;;;;;;36.55;27.29;98509.13;6974022;28;20200;-85
2023/08/18 15:13:49;;;;;;;2.50;2.07;;;;;;;36.80;26.90;98518.69;6984398;28;20225;-87
2023/08/18 15:17:10;;;;;;;2.80;2.00;;;;;;;37.46;26.39;98510.97;7002152;28;20209;-87
2023/08/18 15:20:32;;;;;;;2.33;2.00;;;;;;;35.95;27.75;98519.47;7001678;28;20208;-88
2023/08/18 15:23:56;;;;;;;3.93;1.87;;;;;;;36.06;27.63;98519.63;6991638;28;20382;-86
2023/08/18 15:27:17;;;;;;;3.10;2.23;;;;;;;35.59;28.54;98517.28;7001403;28;20206;-84
2023/08/18 15:30:40;;;;;;;3.40;2.20;;;;;;;35.62;28.92;98505.31;6996538;28;20212;-84
2023/08/18 15:34:03;;;;;;;2.77;1.90;;;;;;;35.83;27.93;98504.88;7002926;28;20618;-84
2023/08/18 15:37:25;;;;;;;5.37;1.93;;;;;;;35.87;27.67;98453.22;7001684;28;20576;-83
2023/08/18 15:40:47;;;;;;;3.13;1.80;;;;;;;36.19;27.47;98518.28;6978992;28;20216;-83
2023/08/18 15:44:08;;;;;;;2.07;1.63;;;;;;;35.71;28.15;98477.81;7001104;28;20226;-83
2023/08/18 15:47:31;;;;;;;2.93;1.90;;;;;;;35.98;27.37;98462.59;6998088;28;20313;-83
2023/08/18 15:50:53;;;;;;;3.10;2.30;;;;;;;36.13;28.10;98514.94;7001973;28;20240;-83
2023/08/18 15:54:14;;;;;;;3.67;1.70;;;;;;;36.24;28.24;98489.81;7001496;28;20738;-83
2023/08/18 15:57:36;;;;;;;2.83;2.00;;;;;;;36.96;28.10;98513.66;6999742;28;20233;-83